Time;durP1;ratioP1;P1;durP2;ratioP2;P2;SDS_P1;SDS_P2;PMS_P1;PMS_P2;Temp;Humidity;BMP_temperature;BMP_pressure;BME280_temperature;BME280_humidity;BME280_pressure;Samples;Min_cycle;Max_cycle;Signal;HPM_P1;HPM_P2
2021/08/02 00:01:05;;;;;;;6.68;2.33;;;;;;;11.23;100.00;100786.72;4982943;28;20246;-78
2021/08/02 00:03:45;;;;;;;5.53;1.60;;;;;;;11.18;100.00;100786.31;4945382;28;20058;-77
2021/08/02 00:06:16;;;;;;;9.48;1.80;;;;;;;11.16;100.00;100789.09;4980462;28;20512;-79
2021/08/02 00:08:42;;;;;;;9.77;2.10;;;;;;;11.13;100.00;100786.75;4960668;28;20162;-79
2021/08/02 00:11:07;;;;;;;11.40;2.22;;;;;;;11.10;100.00;100782.63;4961390;28;20055;-79
2021/08/02 00:13:36;;;;;;;5.47;2.25;;;;;;;11.18;100.00;100788.94;4970678;28;20059;-79
2021/08/02 00:16:05;;;;;;;7.50;2.25;;;;;;;11.16;100.00;100798.78;4964067;28;20119;-79
2021/08/02 00:18:31;;;;;;;7.50;1.90;;;;;;;11.15;100.00;100797.97;4994618;28;20415;-78
2021/08/02 00:21:00;;;;;;;3.30;1.98;;;;;;;11.17;100.00;100801.25;4957871;28;20039;-77
2021/08/02 00:23:27;;;;;;;7.28;2.08;;;;;;;11.18;100.00;100800.25;4967847;28;20039;-78
2021/08/02 00:25:57;;;;;;;5.78;2.13;;;;;;;11.26;100.00;100802.16;4961097;28;20031;-79
2021/08/02 00:28:23;;;;;;;8.23;2.33;;;;;;;11.33;100.00;100802.38;4978060;28;20027;-78
2021/08/02 00:30:51;;;;;;;9.48;2.20;;;;;;;11.42;100.00;100801.47;4976860;28;20026;-79
2021/08/02 00:33:16;;;;;;;6.57;2.08;;;;;;;11.35;100.00;100782.06;4945514;28;20041;-78
2021/08/02 00:36:02;;;;;;;14.32;2.60;;;;;;;11.51;100.00;100795.34;4979008;28;20441;-80
2021/08/02 00:38:37;;;;;;;4.03;2.03;;;;;;;11.58;100.00;100801.59;4959698;28;20093;-82
2021/08/02 00:41:35;;;;;;;6.88;2.20;;;;;;;11.62;100.00;100799.50;4978793;28;20132;-79
2021/08/02 00:44:26;;;;;;;10.23;2.53;;;;;;;11.68;100.00;100802.34;4930018;28;20058;-79
2021/08/02 00:47:04;;;;;;;6.10;2.05;;;;;;;11.78;100.00;100798.81;4975495;28;20521;-80
2021/08/02 00:49:31;;;;;;;8.07;1.95;;;;;;;11.85;100.00;100794.63;4962009;28;20045;-78
2021/08/02 00:51:58;;;;;;;7.35;2.40;;;;;;;11.92;100.00;100794.84;4964535;28;20092;-78
2021/08/02 00:54:26;;;;;;;4.47;2.20;;;;;;;11.88;100.00;100800.38;4966372;28;20030;-79
2021/08/02 00:56:58;;;;;;;9.85;2.03;;;;;;;11.99;100.00;100795.88;4976216;28;20039;-78
2021/08/02 00:59:28;;;;;;;6.25;2.28;;;;;;;11.98;100.00;100783.69;4970448;28;20038;-78
2021/08/02 01:01:55;;;;;;;10.77;2.10;;;;;;;12.05;100.00;100792.63;4973109;28;20027;-79
2021/08/02 01:04:25;;;;;;;11.07;2.17;;;;;;;12.10;100.00;100790.34;4976873;28;20551;-79
2021/08/02 01:06:53;;;;;;;6.10;1.90;;;;;;;12.12;100.00;100795.47;4972557;28;20034;-78
2021/08/02 01:09:23;;;;;;;7.63;2.00;;;;;;;12.04;100.00;100785.72;4962383;28;20045;-79
2021/08/02 01:11:53;;;;;;;8.02;2.00;;;;;;;12.05;100.00;100787.38;4946102;28;20023;-79
2021/08/02 01:14:20;;;;;;;5.80;1.80;;;;;;;12.11;100.00;100796.44;4961580;28;20033;-78
2021/08/02 01:16:47;;;;;;;7.60;2.00;;;;;;;12.08;100.00;100805.47;4943948;28;20535;-78
2021/08/02 01:19:15;;;;;;;6.75;2.20;;;;;;;12.06;100.00;100796.91;4977674;28;20387;-79
2021/08/02 01:21:46;;;;;;;7.35;1.90;;;;;;;12.07;100.00;100799.41;4973927;28;20038;-78
2021/08/02 01:24:13;;;;;;;7.95;1.98;;;;;;;12.04;100.00;100797.06;4961192;28;20031;-79
2021/08/02 01:26:42;;;;;;;9.73;2.17;;;;;;;12.01;100.00;100799.97;4959302;28;20038;-80
2021/08/02 01:29:47;;;;;;;7.70;2.10;;;;;;;11.97;100.00;100803.09;4969914;28;20095;-78
2021/08/02 01:32:17;;;;;;;4.45;1.70;;;;;;;11.96;100.00;100806.69;4956734;28;20039;-79
2021/08/02 01:34:44;;;;;;;8.45;2.08;;;;;;;11.91;100.00;100803.72;4963187;28;20464;-79
2021/08/02 01:37:11;;;;;;;5.45;1.90;;;;;;;11.94;100.00;100801.59;4969748;28;20038;-78
2021/08/02 01:39:39;;;;;;;8.10;2.08;;;;;;;11.85;100.00;100794.63;4970026;28;20035;-79
2021/08/02 01:42:06;;;;;;;7.63;2.08;;;;;;;11.85;100.00;100802.50;4961011;28;20701;-79
2021/08/02 01:44:31;;;;;;;8.93;1.90;;;;;;;11.89;100.00;100798.56;4966696;28;20042;-79
2021/08/02 01:47:16;;;;;;;8.68;1.98;;;;;;;11.93;100.00;100813.09;4992592;28;20038;-80
2021/08/02 01:49:55;;;;;;;7.47;2.03;;;;;;;11.87;100.00;100798.72;4958966;28;20051;-78
2021/08/02 01:52:34;;;;;;;5.18;2.13;;;;;;;11.95;100.00;100802.44;4971886;28;20027;-79
2021/08/02 01:55:04;;;;;;;3.80;1.60;;;;;;;11.95;100.00;100800.59;4976858;28;20038;-79
2021/08/02 01:57:48;;;;;;;12.05;2.40;;;;;;;11.99;100.00;100806.38;4958526;28;20062;-78
2021/08/02 02:00:27;;;;;;;5.07;1.60;;;;;;;12.05;100.00;100822.38;4962872;28;20026;-80
2021/08/02 02:03:07;;;;;;;6.55;1.92;;;;;;;12.06;100.00;100816.13;4960050;28;20038;-78
2021/08/02 02:05:44;;;;;;;11.18;2.42;;;;;;;12.01;100.00;100809.69;4979632;28;20049;-79
2021/08/02 02:08:15;;;;;;;7.97;2.30;;;;;;;11.99;100.00;100812.47;4960454;28;20117;-79
2021/08/02 02:10:51;;;;;;;9.45;2.40;;;;;;;12.06;100.00;100818.75;4975860;28;20524;-79
2021/08/02 02:13:24;;;;;;;5.95;1.80;;;;;;;12.00;100.00;100808.88;4963296;28;20023;-80
2021/08/02 02:15:53;;;;;;;7.70;1.80;;;;;;;11.91;100.00;100787.94;4974718;28;20110;-79
2021/08/02 02:18:23;;;;;;;7.63;1.77;;;;;;;11.82;100.00;100808.88;4957367;28;20125;-79
2021/08/02 02:20:50;;;;;;;11.15;1.60;;;;;;;11.71;100.00;100809.09;4977672;28;20023;-79
2021/08/02 02:23:18;;;;;;;8.98;1.95;;;;;;;11.61;100.00;100808.38;4961859;28;20093;-78
2021/08/02 02:25:45;;;;;;;5.78;1.98;;;;;;;11.55;100.00;100806.38;4977178;28;20070;-80
2021/08/02 02:28:20;;;;;;;5.40;1.70;;;;;;;11.45;100.00;100815.16;4946949;28;20038;-77
2021/08/02 02:30:49;;;;;;;4.82;1.90;;;;;;;11.36;100.00;100821.28;4976099;28;20047;-79
2021/08/02 02:33:16;;;;;;;7.13;1.77;;;;;;;11.31;100.00;100818.28;4961545;28;20513;-80
2021/08/02 02:35:45;;;;;;;5.65;2.13;;;;;;;11.27;100.00;100812.50;4978758;28;20070;-79
2021/08/02 02:38:13;;;;;;;7.90;1.98;;;;;;;11.24;100.00;100811.97;4959133;28;20102;-79
2021/08/02 02:40:44;;;;;;;8.52;1.90;;;;;;;11.16;100.00;100819.78;4966650;28;20067;-80
2021/08/02 02:43:15;;;;;;;9.10;1.92;;;;;;;11.09;100.00;100819.53;4961708;28;20031;-80
2021/08/02 02:45:44;;;;;;;7.03;1.88;;;;;;;11.09;100.00;100815.13;4965151;28;20061;-81
2021/08/02 02:48:12;;;;;;;4.35;1.83;;;;;;;11.02;100.00;100806.19;4961752;28;20038;-79
2021/08/02 02:50:40;;;;;;;10.02;1.70;;;;;;;11.02;100.00;100823.72;4973400;28;20035;-78
2021/08/02 02:53:06;;;;;;;7.57;2.00;;;;;;;11.01;100.00;100817.66;4963724;28;20460;-79
2021/08/02 02:55:34;;;;;;;8.82;2.05;;;;;;;11.03;100.00;100813.06;4946372;29;20041;-78
2021/08/02 02:58:01;;;;;;;7.55;2.15;;;;;;;11.05;100.00;100811.13;4963027;28;20053;-81
2021/08/02 03:00:29;;;;;;;4.78;1.98;;;;;;;11.10;100.00;100824.63;4965920;28;20034;-80
2021/08/02 03:02:58;;;;;;;5.90;1.83;;;;;;;11.16;100.00;100833.72;4961686;28;20035;-80
2021/08/02 03:05:28;;;;;;;11.85;2.25;;;;;;;11.20;100.00;100827.19;4949761;28;20086;-79
2021/08/02 03:07:57;;;;;;;8.30;2.17;;;;;;;11.23;100.00;100836.59;4949534;28;20033;-79
2021/08/02 03:10:26;;;;;;;5.63;1.88;;;;;;;11.28;100.00;100839.56;4963250;28;20201;-79
2021/08/02 03:12:55;;;;;;;6.93;1.75;;;;;;;11.15;100.00;100823.34;4970931;28;20061;-80
2021/08/02 03:15:21;;;;;;;12.35;1.75;;;;;;;11.24;100.00;100839.03;4982196;28;20050;-80
2021/08/02 03:17:47;;;;;;;7.72;1.83;;;;;;;11.26;100.00;100849.41;4964883;28;20057;-80
2021/08/02 03:20:14;;;;;;;5.90;1.90;;;;;;;11.22;100.00;100830.50;4964690;28;20059;-81
2021/08/02 03:22:50;;;;;;;6.18;1.77;;;;;;;11.37;100.00;100848.38;4977915;28;20027;-79
2021/08/02 03:25:28;;;;;;;7.20;1.77;;;;;;;11.37;100.00;100848.38;4959974;28;20025;-78
2021/08/02 03:28:02;;;;;;;4.65;1.70;;;;;;;11.37;100.00;100849.19;4964016;28;20031;-78
2021/08/02 03:30:30;;;;;;;4.05;1.85;;;;;;;11.40;100.00;100845.47;4987370;28;20049;-78
2021/08/02 03:32:59;;;;;;;6.55;1.83;;;;;;;11.38;100.00;100840.34;4956025;28;20083;-78
2021/08/02 03:35:25;;;;;;;11.52;2.28;;;;;;;11.50;100.00;100847.03;4957193;28;20137;-77
2021/08/02 03:37:52;;;;;;;10.80;1.90;;;;;;;11.49;100.00;100845.38;4963092;28;20142;-79
2021/08/02 03:40:19;;;;;;;8.60;1.92;;;;;;;11.61;100.00;100837.28;4939806;28;20042;-79
2021/08/02 03:42:46;;;;;;;8.63;2.47;;;;;;;11.69;100.00;100845.22;4988922;28;20027;-80
2021/08/02 03:45:13;;;;;;;6.65;1.92;;;;;;;11.78;100.00;100849.56;4962484;28;20046;-78
2021/08/02 03:47:40;;;;;;;8.02;1.80;;;;;;;11.78;100.00;100848.75;4973328;28;20086;-78
2021/08/02 03:50:06;;;;;;;7.53;2.10;;;;;;;11.77;100.00;100850.56;4974378;28;20523;-80
2021/08/02 03:52:32;;;;;;;7.93;2.33;;;;;;;11.84;100.00;100846.31;4942190;28;20054;-78
2021/08/02 03:54:58;;;;;;;7.22;2.30;;;;;;;11.83;100.00;100854.38;4976273;28;20437;-78
2021/08/02 03:57:24;;;;;;;6.30;1.80;;;;;;;11.87;100.00;100853.09;4963314;28;20039;-80
2021/08/02 03:59:50;;;;;;;9.10;2.90;;;;;;;11.95;100.00;100861.06;4975051;28;20496;-79
2021/08/02 04:02:16;;;;;;;6.97;1.75;;;;;;;11.88;100.00;100847.69;4976547;28;20563;-78
2021/08/02 04:04:43;;;;;;;6.68;1.90;;;;;;;11.94;100.00;100861.22;4974436;28;20042;-78
2021/08/02 04:07:08;;;;;;;8.00;2.10;;;;;;;11.94;100.00;100875.22;4975395;28;20031;-80
2021/08/02 04:09:34;;;;;;;7.68;2.00;;;;;;;11.97;100.00;100876.69;4961451;28;20406;-79
2021/08/02 04:12:00;;;;;;;4.93;1.88;;;;;;;11.99;100.00;100874.75;4977853;28;20054;-79
2021/08/02 04:14:25;;;;;;;5.28;1.85;;;;;;;11.92;100.00;100871.88;4946927;28;20042;-79
2021/08/02 04:16:51;;;;;;;4.80;1.90;;;;;;;11.95;100.00;100870.78;4979034;28;20038;-80
2021/08/02 04:19:16;;;;;;;10.32;2.00;;;;;;;11.99;100.00;100872.09;4979465;28;20045;-79
2021/08/02 04:21:42;;;;;;;4.40;1.90;;;;;;;12.04;100.00;100864.59;4978236;28;20031;-78
2021/08/02 04:24:07;;;;;;;4.30;1.80;;;;;;;12.08;100.00;100864.13;4966363;28;20046;-80
2021/08/02 04:26:33;;;;;;;9.02;2.00;;;;;;;12.08;100.00;100869.38;4965686;28;20416;-78
2021/08/02 04:28:59;;;;;;;10.27;2.08;;;;;;;12.14;100.00;100875.00;4978857;28;20791;-80
2021/08/02 04:31:26;;;;;;;10.15;2.50;;;;;;;12.17;100.00;100877.34;4968320;28;20140;-80
2021/08/02 04:33:52;;;;;;;5.90;1.95;;;;;;;12.19;100.00;100870.13;4978854;28;20030;-81
2021/08/02 04:36:18;;;;;;;8.40;1.85;;;;;;;12.24;100.00;100875.72;4961880;28;20038;-79
2021/08/02 04:38:44;;;;;;;5.45;1.73;;;;;;;12.27;100.00;100883.31;4984924;28;20128;-79
2021/08/02 04:41:09;;;;;;;6.65;1.92;;;;;;;12.39;100.00;100876.00;4966145;28;20039;-78
2021/08/02 04:43:35;;;;;;;7.07;1.67;;;;;;;12.39;100.00;100883.88;4964333;28;20054;-78
2021/08/02 04:46:01;;;;;;;5.10;1.95;;;;;;;12.40;100.00;100881.09;4977380;28;20035;-78
2021/08/02 04:48:27;;;;;;;7.10;2.30;;;;;;;12.44;100.00;100871.91;4977511;28;20026;-79
2021/08/02 04:50:52;;;;;;;6.63;1.83;;;;;;;12.41;100.00;100872.25;4949479;28;20038;-79
2021/08/02 04:53:18;;;;;;;7.00;2.30;;;;;;;12.38;100.00;100855.94;4978000;28;20109;-78
2021/08/02 04:55:43;;;;;;;9.50;2.03;;;;;;;12.41;100.00;100872.25;4979348;28;20097;-79
2021/08/02 04:58:09;;;;;;;4.88;1.83;;;;;;;12.50;100.00;100888.88;4974528;28;20394;-79
2021/08/02 05:00:34;;;;;;;4.40;1.90;;;;;;;12.51;100.00;100887.06;4954835;28;20166;-79
2021/08/02 05:03:01;;;;;;;6.40;1.83;;;;;;;12.54;100.00;100899.94;4985998;28;20174;-79
2021/08/02 05:05:27;;;;;;;10.00;2.00;;;;;;;12.61;100.00;100901.78;4962861;28;20043;-80
2021/08/02 05:07:53;;;;;;;6.75;1.63;;;;;;;12.62;100.00;100898.19;4975491;28;20039;-82
2021/08/02 05:10:18;;;;;;;9.68;1.90;;;;;;;12.73;100.00;100899.69;4973588;28;20125;-81
2021/08/02 05:12:44;;;;;;;6.95;1.92;;;;;;;12.84;100.00;100902.06;4957978;28;20042;-81
2021/08/02 05:15:11;;;;;;;7.00;2.03;;;;;;;12.91;100.00;100910.16;4948801;29;20072;-80
2021/08/02 05:17:37;;;;;;;8.40;2.03;;;;;;;13.03;100.00;100913.34;4962458;28;20039;-81
2021/08/02 05:20:05;;;;;;;12.10;1.83;;;;;;;13.00;100.00;100911.84;4974409;28;20089;-82
2021/08/02 05:22:31;;;;;;;7.55;1.80;;;;;;;13.04;100.00;100913.19;4957419;28;20047;-81
2021/08/02 05:24:56;;;;;;;3.85;1.73;;;;;;;13.08;100.00;100908.44;4961042;28;20123;-81
2021/08/02 05:27:22;;;;;;;11.00;2.20;;;;;;;13.02;100.00;100898.53;4978518;28;20089;-81
2021/08/02 05:29:47;;;;;;;5.28;1.85;;;;;;;13.05;100.00;100919.25;4944204;28;20515;-79
2021/08/02 05:32:13;;;;;;;7.50;1.90;;;;;;;13.10;100.00;100921.44;4960846;28;20042;-81
2021/08/02 05:34:40;;;;;;;10.00;1.92;;;;;;;13.12;100.00;100914.19;4960030;28;20509;-80
2021/08/02 05:37:08;;;;;;;10.07;2.33;;;;;;;13.16;100.00;100903.19;4960107;29;20121;-81
2021/08/02 05:39:34;;;;;;;7.75;1.98;;;;;;;13.22;100.00;100904.34;4974735;28;20046;-80
2021/08/02 05:41:59;;;;;;;6.43;2.30;;;;;;;13.28;100.00;100911.63;4982291;28;20034;-80
2021/08/02 05:44:24;;;;;;;6.70;1.80;;;;;;;13.30;100.00;100911.44;4977134;28;20102;-83
2021/08/02 05:46:51;;;;;;;4.93;1.92;;;;;;;13.37;100.00;100915.97;4945529;28;20412;-83
2021/08/02 05:49:17;;;;;;;11.27;1.90;;;;;;;13.42;100.00;100916.28;4976134;28;20098;-82
2021/08/02 05:51:42;;;;;;;8.93;2.40;;;;;;;13.48;100.00;100906.91;4960714;28;20627;-81
2021/08/02 05:54:08;;;;;;;8.75;2.10;;;;;;;13.60;100.00;100918.81;4976307;28;20035;-81
2021/08/02 05:56:33;;;;;;;8.73;2.13;;;;;;;13.62;100.00;100906.31;4965283;28;20038;-81
2021/08/02 05:58:59;;;;;;;6.43;2.33;;;;;;;13.73;100.00;100914.88;4961350;28;20633;-82
2021/08/02 06:01:24;;;;;;;4.97;1.60;;;;;;;13.78;100.00;100918.66;4975429;28;20038;-82
2021/08/02 06:03:50;;;;;;;7.53;2.05;;;;;;;13.87;100.00;100908.97;4973030;28;20035;-83
2021/08/02 06:06:16;;;;;;;11.30;1.65;;;;;;;13.91;100.00;100915.56;4976282;28;20417;-81
2021/08/02 06:08:42;;;;;;;6.53;1.83;;;;;;;13.98;100.00;100921.00;4966421;28;20031;-81
2021/08/02 06:11:08;;;;;;;6.97;1.52;;;;;;;14.06;100.00;100923.63;4980086;28;20110;-81
2021/08/02 06:13:34;;;;;;;4.75;1.40;;;;;;;14.10;98.33;100919.69;4986197;28;20026;-81
2021/08/02 06:16:00;;;;;;;8.10;1.60;;;;;;;14.19;98.17;100918.69;4948503;28;20106;-81
2021/08/02 06:18:25;;;;;;;8.27;1.70;;;;;;;14.34;97.23;100918.84;4949342;29;20426;-81
2021/08/02 06:20:51;;;;;;;5.43;1.40;;;;;;;14.35;97.42;100909.09;4981185;28;20066;-81
2021/08/02 06:23:16;;;;;;;7.53;1.55;;;;;;;14.44;97.76;100904.66;4964285;28;20061;-81
2021/08/02 06:25:42;;;;;;;7.30;1.50;;;;;;;14.40;97.49;100919.97;4965338;28;20039;-80
2021/08/02 06:28:07;;;;;;;8.50;1.65;;;;;;;14.40;99.57;100912.88;4962323;28;20069;-81
2021/08/02 06:30:33;;;;;;;6.25;1.35;;;;;;;14.34;98.02;100926.75;4980719;28;20026;-80
2021/08/02 06:32:58;;;;;;;3.97;1.33;;;;;;;14.46;100.00;100929.88;4996765;28;20125;-82
2021/08/02 06:35:24;;;;;;;7.78;1.40;;;;;;;14.47;97.42;100933.34;4978105;28;20065;-82
2021/08/02 06:37:49;;;;;;;6.80;1.35;;;;;;;14.53;98.26;100930.03;4976609;28;20054;-81
2021/08/02 06:40:15;;;;;;;7.13;1.30;;;;;;;14.59;97.82;100934.66;4970630;28;20478;-80
2021/08/02 06:42:41;;;;;;;7.55;1.45;;;;;;;14.58;97.48;100933.84;4974968;28;20031;-79
2021/08/02 06:45:08;;;;;;;4.25;1.20;;;;;;;14.53;98.71;100941.41;4967566;28;20066;-81
2021/08/02 06:47:34;;;;;;;14.25;1.40;;;;;;;14.57;96.60;100949.84;4961196;28;20039;-80
2021/08/02 06:49:59;;;;;;;7.03;1.60;;;;;;;14.61;96.18;100937.97;4942968;28;20054;-82
2021/08/02 06:52:25;;;;;;;3.55;1.25;;;;;;;14.57;95.20;100937.47;4971851;28;20518;-80
2021/08/02 06:54:50;;;;;;;6.93;1.40;;;;;;;14.70;96.66;100946.69;4963795;28;20054;-81
2021/08/02 06:57:16;;;;;;;7.47;1.63;;;;;;;14.78;94.31;100934.28;4981672;28;20034;-80
2021/08/02 06:59:42;;;;;;;5.93;1.60;;;;;;;15.01;96.04;100959.97;4983474;28;20065;-80
2021/08/02 07:02:07;;;;;;;6.47;1.60;;;;;;;15.14;96.07;100960.28;4947721;28;20127;-81
2021/08/02 07:04:33;;;;;;;8.18;1.70;;;;;;;15.32;93.04;100960.00;4979077;28;20040;-81
2021/08/02 07:06:58;;;;;;;5.15;1.33;;;;;;;15.67;92.29;100964.94;4978135;28;20061;-81
2021/08/02 07:09:24;;;;;;;7.85;2.00;;;;;;;15.72;90.41;100960.78;4973419;28;20393;-79
2021/08/02 07:11:50;;;;;;;4.28;1.70;;;;;;;15.72;91.60;100970.53;4983507;28;20400;-79
2021/08/02 07:14:15;;;;;;;6.30;1.38;;;;;;;15.48;90.53;100951.19;4968036;28;20031;-79
2021/08/02 07:16:41;;;;;;;4.65;1.30;;;;;;;15.44;89.53;100963.09;4943732;28;20043;-78
2021/08/02 07:19:06;;;;;;;4.68;1.50;;;;;;;15.50;92.62;100964.22;4964730;28;20039;-79
2021/08/02 07:21:32;;;;;;;5.35;1.50;;;;;;;15.84;92.87;100963.91;4948308;28;20090;-81
2021/08/02 07:23:57;;;;;;;9.95;1.45;;;;;;;16.39;88.69;100975.22;4974045;28;20028;-79
2021/08/02 07:26:24;;;;;;;6.95;1.60;;;;;;;16.87;84.18;100973.09;4975711;28;20061;-82
2021/08/02 07:28:49;;;;;;;10.93;1.70;;;;;;;17.09;82.49;100987.28;4974386;28;20042;-82
2021/08/02 07:31:15;;;;;;;6.90;1.30;;;;;;;17.05;81.03;100978.03;4974092;28;20030;-82
2021/08/02 07:33:41;;;;;;;5.97;1.65;;;;;;;16.76;84.09;100983.31;4990190;28;20077;-80
2021/08/02 07:36:07;;;;;;;5.70;1.42;;;;;;;16.66;85.11;100991.50;4972527;28;20046;-80
2021/08/02 07:38:34;;;;;;;6.03;1.27;;;;;;;16.59;84.86;101001.16;4963651;28;20054;-80
2021/08/02 07:41:01;;;;;;;9.23;1.50;;;;;;;16.40;88.18;100994.56;4961355;28;20039;-83
2021/08/02 07:43:26;;;;;;;4.72;1.20;;;;;;;16.23;88.03;100981.44;4961825;28;20042;-81
2021/08/02 07:45:52;;;;;;;5.15;1.50;;;;;;;16.14;88.30;101001.88;4960755;28;20045;-82
2021/08/02 07:48:17;;;;;;;4.50;1.10;;;;;;;15.95;85.26;100983.81;4947567;28;20054;-82
2021/08/02 07:50:43;;;;;;;5.22;1.33;;;;;;;15.84;87.38;100986.84;4995857;28;20042;-81
2021/08/02 07:53:08;;;;;;;6.28;1.10;;;;;;;15.79;85.24;100989.22;4974662;28;20031;-80
2021/08/02 07:55:34;;;;;;;8.68;1.10;;;;;;;15.74;88.82;101000.31;4963742;28;20469;-81
2021/08/02 07:57:59;;;;;;;3.45;0.80;;;;;;;15.54;86.00;100992.78;4944740;28;20858;-82
2021/08/02 08:00:25;;;;;;;9.38;1.27;;;;;;;15.48;86.63;100988.19;4941565;29;20127;-80
2021/08/02 08:02:50;;;;;;;4.95;1.10;;;;;;;15.51;86.13;100982.56;4935085;28;20055;-81
2021/08/02 08:05:16;;;;;;;6.53;1.40;;;;;;;15.73;89.09;100980.97;4974567;28;20181;-83
2021/08/02 08:07:47;;;;;;;3.80;1.10;;;;;;;15.80;86.50;100985.56;4964819;28;20097;-82
2021/08/02 08:10:15;;;;;;;3.35;1.08;;;;;;;16.06;90.66;100983.41;4956129;28;20034;-84
2021/08/02 08:12:41;;;;;;;4.43;0.90;;;;;;;16.25;86.77;100986.56;4960203;28;20043;-82
2021/08/02 08:15:08;;;;;;;4.10;0.93;;;;;;;16.54;85.58;100986.66;4946477;28;20042;-80
2021/08/02 08:17:34;;;;;;;3.58;1.00;;;;;;;16.77;83.82;100985.78;4965976;28;20030;-82
2021/08/02 08:20:00;;;;;;;8.55;1.25;;;;;;;16.95;84.07;100990.72;4961578;28;20030;-81
2021/08/02 08:22:27;;;;;;;3.75;1.10;;;;;;;16.96;84.53;100994.22;4945350;28;20038;-83
2021/08/02 08:24:53;;;;;;;9.70;1.40;;;;;;;16.72;85.34;100980.19;4961138;28;20062;-81
2021/08/02 08:27:18;;;;;;;4.07;1.05;;;;;;;16.76;88.36;100997.34;4960328;28;20027;-82
2021/08/02 08:29:44;;;;;;;2.28;1.00;;;;;;;16.65;87.67;101001.28;4977921;28;20517;-81
2021/08/02 08:32:10;;;;;;;4.85;1.00;;;;;;;16.47;84.70;100991.00;4981778;28;20614;-82
2021/08/02 08:34:35;;;;;;;4.38;1.08;;;;;;;16.18;79.62;100998.84;4979404;28;20046;-82
2021/08/02 08:37:01;;;;;;;5.43;0.70;;;;;;;16.04;81.64;100995.16;4954629;28;20100;-81
2021/08/02 08:39:26;;;;;;;3.05;1.23;;;;;;;15.93;84.02;100991.09;4993016;28;20062;-81
2021/08/02 08:41:52;;;;;;;2.28;0.70;;;;;;;15.88;81.90;100991.63;4979503;28;20035;-81
2021/08/02 08:44:20;;;;;;;4.60;0.90;;;;;;;15.95;82.22;101004.97;4963454;28;20023;-81
2021/08/02 08:46:46;;;;;;;3.70;0.73;;;;;;;16.04;84.29;101003.09;4995800;28;20031;-80
2021/08/02 08:49:12;;;;;;;3.00;0.73;;;;;;;16.18;85.64;101010.28;5001456;28;20025;-81
2021/08/02 08:51:42;;;;;;;4.57;0.73;;;;;;;16.24;81.41;101012.22;4983351;28;20039;-82
2021/08/02 08:54:07;;;;;;;4.25;1.10;;;;;;;16.27;83.42;100984.56;4962780;28;20249;-80
2021/08/02 08:56:33;;;;;;;1.80;0.80;;;;;;;16.45;86.68;101016.03;4948336;29;20512;-81
2021/08/02 08:58:58;;;;;;;2.50;0.88;;;;;;;16.64;84.53;101020.00;4964381;28;20157;-82
2021/08/02 09:01:29;;;;;;;1.70;0.68;;;;;;;16.79;84.14;101020.84;4973211;28;20043;-80
2021/08/02 09:03:55;;;;;;;3.38;0.95;;;;;;;16.93;84.92;101020.09;4939431;28;20112;-83
2021/08/02 09:06:21;;;;;;;2.30;0.90;;;;;;;16.97;82.77;101020.53;4989186;28;20496;-81
2021/08/02 09:08:47;;;;;;;3.45;0.90;;;;;;;17.04;81.03;101017.97;4960578;28;20043;-82
2021/08/02 09:11:31;;;;;;;2.75;1.00;;;;;;;17.09;82.57;101018.25;4959689;28;20544;-81
2021/08/02 09:13:56;;;;;;;5.22;1.00;;;;;;;17.07;79.79;100996.41;4960499;28;20038;-82
2021/08/02 09:16:27;;;;;;;4.43;1.30;;;;;;;17.29;80.40;101022.00;4975425;28;20096;-80
2021/08/02 09:19:01;;;;;;;3.45;0.80;;;;;;;17.41;80.01;101016.22;4965581;28;20474;-80
2021/08/02 09:21:27;;;;;;;2.72;0.95;;;;;;;17.45;81.33;101022.81;4974271;28;20035;-81
2021/08/02 09:23:57;;;;;;;4.38;1.15;;;;;;;17.63;84.22;101017.09;4978717;28;20092;-81
2021/08/02 09:26:30;;;;;;;7.88;1.38;;;;;;;18.04;80.30;101009.41;4946938;28;20034;-80
2021/08/02 09:28:56;;;;;;;4.25;1.00;;;;;;;18.42;75.28;101003.00;4960266;28;20026;-81
2021/08/02 09:31:31;;;;;;;4.30;1.10;;;;;;;18.64;73.43;101011.75;4978360;28;20129;-82
2021/08/02 09:34:01;;;;;;;3.95;0.90;;;;;;;18.67;69.96;100995.44;4960831;28;20037;-82
2021/08/02 09:36:36;;;;;;;3.55;1.00;;;;;;;18.63;72.15;101008.28;4980934;28;20069;-82
2021/08/02 09:39:11;;;;;;;4.63;1.38;;;;;;;18.98;73.85;101010.19;4973710;28;20034;-83
2021/08/02 09:41:37;;;;;;;2.28;0.82;;;;;;;19.26;66.12;101012.78;4965920;28;20035;-80
2021/08/02 09:44:04;;;;;;;2.15;0.98;;;;;;;19.13;67.94;101010.06;4942866;28;20222;-80
2021/08/02 09:46:30;;;;;;;3.08;1.00;;;;;;;19.00;71.57;101008.97;4958324;28;20114;-83
2021/08/02 09:49:02;;;;;;;3.63;1.00;;;;;;;19.08;71.12;101007.16;4973772;28;20031;-80
2021/08/02 09:51:41;;;;;;;4.57;0.77;;;;;;;19.38;68.78;101005.91;4969942;28;20625;-82
2021/08/02 09:54:06;;;;;;;4.07;1.30;;;;;;;19.37;67.86;101006.09;4974251;28;20121;-82
2021/08/02 09:56:32;;;;;;;5.95;0.98;;;;;;;19.36;72.52;101007.91;4941696;28;20063;-80
2021/08/02 09:58:58;;;;;;;5.45;1.00;;;;;;;19.30;75.53;101003.38;4940155;28;20423;-80
2021/08/02 10:01:23;;;;;;;5.47;1.10;;;;;;;19.22;69.61;101008.88;4941471;28;20509;-81
2021/08/02 10:03:49;;;;;;;3.72;0.88;;;;;;;19.11;68.91;101017.41;4958937;28;20042;-81
2021/08/02 10:06:15;;;;;;;2.50;1.10;;;;;;;18.86;72.63;101004.59;4966655;28;20027;-82
2021/08/02 10:08:42;;;;;;;4.45;1.10;;;;;;;19.50;68.48;101008.00;4971687;28;20063;-81
2021/08/02 10:11:09;;;;;;;4.10;1.10;;;;;;;19.69;65.32;101014.41;4940057;28;20094;-82
2021/08/02 10:13:37;;;;;;;2.85;0.82;;;;;;;19.84;65.77;101005.25;4942009;28;20045;-82
2021/08/02 10:16:05;;;;;;;5.03;0.80;;;;;;;20.28;64.65;101010.22;4955129;28;20027;-80
2021/08/02 10:18:31;;;;;;;3.38;0.85;;;;;;;20.23;61.33;101003.69;4961969;28;20049;-80
2021/08/02 10:21:09;;;;;;;1.90;0.70;;;;;;;19.94;60.85;101009.38;4973177;28;20058;-82
2021/08/02 10:23:35;;;;;;;2.10;0.82;;;;;;;19.67;67.70;101006.59;4975527;28;20066;-81
2021/08/02 10:26:00;;;;;;;3.60;0.98;;;;;;;19.57;64.40;100991.03;4989828;28;20050;-83
2021/08/02 10:28:27;;;;;;;2.53;0.90;;;;;;;19.49;67.04;101016.97;4977488;28;20061;-82
2021/08/02 10:31:06;;;;;;;5.95;1.05;;;;;;;19.54;68.04;101015.38;4957676;28;20053;-83
2021/08/02 10:33:37;;;;;;;3.40;1.10;;;;;;;19.99;64.24;101015.72;4972136;28;20574;-80
2021/08/02 10:36:14;;;;;;;3.75;1.00;;;;;;;20.41;60.89;101020.88;4972934;28;20033;-82
2021/08/02 10:38:51;;;;;;;5.78;1.05;;;;;;;20.95;60.78;101025.19;4970131;28;20046;-81
2021/08/02 10:41:29;;;;;;;2.88;0.90;;;;;;;20.95;58.58;101027.84;4969733;28;20038;-79
2021/08/02 10:43:56;;;;;;;2.72;1.08;;;;;;;21.29;54.94;101025.91;4985611;28;20038;-82
2021/08/02 10:46:22;;;;;;;2.22;0.90;;;;;;;21.61;56.66;101031.34;4972560;28;20106;-81
2021/08/02 10:48:51;;;;;;;4.20;0.82;;;;;;;21.02;54.69;101022.50;4971313;28;20519;-82
2021/08/02 10:51:21;;;;;;;3.67;1.00;;;;;;;20.28;58.62;101023.53;4970954;28;20031;-81
2021/08/02 10:54:01;;;;;;;4.68;0.93;;;;;;;19.48;65.62;101017.97;4973162;28;20564;-80
2021/08/02 10:56:31;;;;;;;7.82;0.98;;;;;;;18.98;71.03;101034.09;4956512;28;20094;-82
2021/08/02 10:59:00;;;;;;;3.10;1.00;;;;;;;18.48;71.22;101036.78;4965215;28;20058;-81
2021/08/02 11:01:26;;;;;;;2.50;0.90;;;;;;;17.86;68.21;101056.78;4958747;28;20054;-79
2021/08/02 11:03:54;;;;;;;5.97;0.93;;;;;;;17.34;71.64;101068.34;4977159;28;20123;-80
2021/08/02 11:06:20;;;;;;;2.60;0.95;;;;;;;16.87;74.15;101065.00;4961653;28;20040;-80
2021/08/02 11:08:47;;;;;;;2.97;0.80;;;;;;;16.32;82.37;101072.22;4974762;28;20106;-80
2021/08/02 11:11:30;;;;;;;4.13;1.25;;;;;;;15.96;83.81;101080.69;4960712;28;20396;-81
2021/08/02 11:14:08;;;;;;;;;;;;;;;15.34;85.89;101078.78;4972804;28;20038;-82
2021/08/02 11:16:46;;;;;;;6.25;1.42;;;;;;;15.05;88.58;101087.25;4960859;28;19965;-80
2021/08/02 11:19:23;;;;;;;4.05;1.40;;;;;;;14.77;90.14;101088.44;4945393;28;20062;-81
2021/08/02 11:22:00;;;;;;;5.65;1.10;;;;;;;14.75;91.78;101086.97;4956629;28;20031;-80
2021/08/02 11:24:34;;;;;;;4.32;1.60;;;;;;;14.77;93.73;101082.34;4981091;28;20449;-81